Strawbridge, Pennsylvania
Current Conditions -  °F | °C
As of 3:43 AM on Monday 22 Dec 2014 (Local Time) from KIPT Reporting Station
Scattered Clouds Scattered Clouds  
Wind Chill: 21°   Ceiling: Unl
Heat Index: 21°   Visibility: 10mi
Dew Point: 18°   Wind: 0mph
Humidity: 88%   Direction: NA
Pressure: 30.31"   Gusts: NA
Location:  41.3719°N, 76.499°W
Report Text: KIPT 220843Z AUTO 00000KT 10SM SCT005 M06/M08 A3031 RMK AO2 T10611078
Loading
Personal Weather Stations






























Interactive Weather Map New forecast layout! Learn more

10-Day Weather Forecast

Advertisements
Track Severe Weather on mobile